sensor_id;sensor_type;location;lat;lon;timestamp;pressure;altitude;pressure_sealevel;temperature;humidity
6453;BME280;3259;51.080;13.712;2023-07-20T00:01:23;99888.03;;;27.72;45.06
6453;BME280;3259;51.080;13.712;2023-07-20T00:04:14;99900.00;;;27.70;45.21
6453;BME280;3259;51.080;13.712;2023-07-20T00:07:04;99898.16;;;27.70;45.78
6453;BME280;3259;51.080;13.712;2023-07-20T00:09:52;99904.78;;;27.68;45.71
6453;BME280;3259;51.080;13.712;2023-07-20T00:12:41;99900.69;;;27.65;45.72
6453;BME280;3259;51.080;13.712;2023-07-20T00:15:34;99897.53;;;27.68;45.69
6453;BME280;3259;51.080;13.712;2023-07-20T00:18:23;99890.31;;;27.69;45.58
6453;BME280;3259;51.080;13.712;2023-07-20T00:21:13;99889.22;;;27.76;45.53
6453;BME280;3259;51.080;13.712;2023-07-20T00:24:05;99885.66;;;27.82;45.32
6453;BME280;3259;51.080;13.712;2023-07-20T00:26:53;99891.44;;;27.79;45.74
6453;BME280;3259;51.080;13.712;2023-07-20T00:29:43;99891.81;;;27.83;45.66
6453;BME280;3259;51.080;13.712;2023-07-20T00:32:31;99889.38;;;27.81;45.66
6453;BME280;3259;51.080;13.712;2023-07-20T00:35:20;99891.81;;;27.83;45.50
6453;BME280;3259;51.080;13.712;2023-07-20T00:38:10;99887.72;;;27.80;45.61
6453;BME280;3259;51.080;13.712;2023-07-20T00:40:59;99896.38;;;27.82;45.66
6453;BME280;3259;51.080;13.712;2023-07-20T00:43:48;99902.53;;;27.83;45.88
6453;BME280;3259;51.080;13.712;2023-07-20T00:46:37;99901.72;;;27.82;45.72
6453;BME280;3259;51.080;13.712;2023-07-20T00:49:28;99896.59;;;27.81;45.54
6453;BME280;3259;51.080;13.712;2023-07-20T00:52:18;99905.88;;;27.78;45.84
6453;BME280;3259;51.080;13.712;2023-07-20T00:55:09;99900.09;;;27.81;45.51
6453;BME280;3259;51.080;13.712;2023-07-20T00:57:58;99894.75;;;27.81;45.76
6453;BME280;3259;51.080;13.712;2023-07-20T01:00:47;99893.53;;;27.77;45.56
6453;BME280;3259;51.080;13.712;2023-07-20T01:03:36;99900.53;;;27.78;45.54
6453;BME280;3259;51.080;13.712;2023-07-20T01:06:31;99894.28;;;27.84;45.60
6453;BME280;3259;51.080;13.712;2023-07-20T01:09:26;99899.19;;;27.87;45.17
6453;BME280;3259;51.080;13.712;2023-07-20T01:12:24;99897.53;;;27.86;45.41
6453;BME280;3259;51.080;13.712;2023-07-20T01:15:14;99894.41;;;27.89;44.92
6453;BME280;3259;51.080;13.712;2023-07-20T01:18:03;99901.41;;;27.90;45.30
6453;BME280;3259;51.080;13.712;2023-07-20T01:20:57;99906.75;;;27.90;45.52
6453;BME280;3259;51.080;13.712;2023-07-20T01:24:10;99912.69;;;27.92;45.05
6453;BME280;3259;51.080;13.712;2023-07-20T01:27:49;99913.75;;;27.91;45.04
6453;BME280;3259;51.080;13.712;2023-07-20T01:30:56;99919.72;;;27.93;44.92
6453;BME280;3259;51.080;13.712;2023-07-20T01:33:50;99920.75;;;27.92;44.73
6453;BME280;3259;51.080;13.712;2023-07-20T01:36:41;99909.44;;;27.90;44.50
6453;BME280;3259;51.080;13.712;2023-07-20T01:39:31;99918.78;;;27.88;44.65
6453;BME280;3259;51.080;13.712;2023-07-20T01:42:21;99914.69;;;27.85;44.78
6453;BME280;3259;51.080;13.712;2023-07-20T01:45:10;99920.63;;;27.87;44.42
6453;BME280;3259;51.080;13.712;2023-07-20T01:47:59;99919.44;;;27.83;44.18
6453;BME280;3259;51.080;13.712;2023-07-20T01:50:49;99903.78;;;27.80;44.02
6453;BME280;3259;51.080;13.712;2023-07-20T01:53:38;99909.16;;;27.80;44.08
6453;BME280;3259;51.080;13.712;2023-07-20T01:56:27;99910.66;;;27.76;44.40
6453;BME280;3259;51.080;13.712;2023-07-20T01:59:16;99911.72;;;27.75;44.26
6453;BME280;3259;51.080;13.712;2023-07-20T02:02:05;99911.50;;;27.77;44.23
6453;BME280;3259;51.080;13.712;2023-07-20T02:04:53;99922.44;;;27.75;44.08
6453;BME280;3259;51.080;13.712;2023-07-20T02:07:43;99902.25;;;27.73;44.00
6453;BME280;3259;51.080;13.712;2023-07-20T02:10:32;99909.47;;;27.72;44.21
6453;BME280;3259;51.080;13.712;2023-07-20T02:13:21;99907.25;;;27.69;44.04
6453;BME280;3259;51.080;13.712;2023-07-20T02:16:09;99905.16;;;27.71;44.25
6453;BME280;3259;51.080;13.712;2023-07-20T02:18:58;99913.03;;;27.66;44.26
6453;BME280;3259;51.080;13.712;2023-07-20T02:21:47;99908.59;;;27.60;44.18
6453;BME280;3259;51.080;13.712;2023-07-20T02:24:37;99916.72;;;27.54;44.49
6453;BME280;3259;51.080;13.712;2023-07-20T02:27:26;99916.91;;;27.52;44.57
6453;BME280;3259;51.080;13.712;2023-07-20T02:30:15;99916.13;;;27.52;44.67
6453;BME280;3259;51.080;13.712;2023-07-20T02:33:04;99916.19;;;27.45;44.74
6453;BME280;3259;51.080;13.712;2023-07-20T02:35:53;99917.84;;;27.46;44.68
6453;BME280;3259;51.080;13.712;2023-07-20T02:38:42;99917.00;;;27.46;44.70
6453;BME280;3259;51.080;13.712;2023-07-20T02:41:33;99912.47;;;27.46;44.62
6453;BME280;3259;51.080;13.712;2023-07-20T02:44:22;99919.47;;;27.47;44.73
6453;BME280;3259;51.080;13.712;2023-07-20T02:47:11;99916.19;;;27.45;44.89
6453;BME280;3259;51.080;13.712;2023-07-20T02:50:00;99914.53;;;27.44;45.03
6453;BME280;3259;51.080;13.712;2023-07-20T02:52:49;99925.25;;;27.44;44.65
6453;BME280;3259;51.080;13.712;2023-07-20T02:55:38;99923.47;;;27.38;44.94
6453;BME280;3259;51.080;13.712;2023-07-20T02:58:28;99936.41;;;27.41;44.65
6453;BME280;3259;51.080;13.712;2023-07-20T03:01:17;99941.78;;;27.41;44.62
6453;BME280;3259;51.080;13.712;2023-07-20T03:04:05;99936.41;;;27.41;44.80
6453;BME280;3259;51.080;13.712;2023-07-20T03:06:54;99940.16;;;27.40;44.73
6453;BME280;3259;51.080;13.712;2023-07-20T03:09:43;99940.97;;;27.41;44.68
6453;BME280;3259;51.080;13.712;2023-07-20T03:12:32;99938.97;;;27.36;44.96
6453;BME280;3259;51.080;13.712;2023-07-20T03:15:23;99952.34;;;27.36;44.98
6453;BME280;3259;51.080;13.712;2023-07-20T03:18:11;99947.00;;;27.36;44.74
6453;BME280;3259;51.080;13.712;2023-07-20T03:21:00;99948.84;;;27.36;45.02
6453;BME280;3259;51.080;13.712;2023-07-20T03:23:49;99952.56;;;27.35;44.70
6453;BME280;3259;51.080;13.712;2023-07-20T03:26:38;99948.47;;;27.32;45.03
6453;BME280;3259;51.080;13.712;2023-07-20T03:29:26;99943.72;;;27.34;44.60
6453;BME280;3259;51.080;13.712;2023-07-20T03:32:17;99959.56;;;27.36;44.98
6453;BME280;3259;51.080;13.712;2023-07-20T03:35:06;99950.13;;;27.33;44.87
6453;BME280;3259;51.080;13.712;2023-07-20T03:37:55;99959.03;;;27.27;44.71
6453;BME280;3259;51.080;13.712;2023-07-20T03:40:50;99955.91;;;27.30;44.60
6453;BME280;3259;51.080;13.712;2023-07-20T03:43:39;99958.00;;;27.28;44.78
6453;BME280;3259;51.080;13.712;2023-07-20T03:46:28;99955.91;;;27.30;44.93
6453;BME280;3259;51.080;13.712;2023-07-20T03:49:18;99954.28;;;27.29;44.73
6453;BME280;3259;51.080;13.712;2023-07-20T03:52:07;99952.66;;;27.28;44.81
6453;BME280;3259;51.080;13.712;2023-07-20T03:54:56;99952.25;;;27.25;44.93
6453;BME280;3259;51.080;13.712;2023-07-20T03:57:45;99954.94;;;27.25;44.95
6453;BME280;3259;51.080;13.712;2023-07-20T04:00:33;99957.41;;;27.26;44.91
6453;BME280;3259;51.080;13.712;2023-07-20T04:03:22;99953.09;;;27.25;44.89
6453;BME280;3259;51.080;13.712;2023-07-20T04:06:15;99953.97;;;27.19;45.07
6453;BME280;3259;51.080;13.712;2023-07-20T04:09:04;99961.41;;;27.17;44.98
6453;BME280;3259;51.080;13.712;2023-07-20T04:11:53;99956.09;;;27.11;45.02
6453;BME280;3259;51.080;13.712;2023-07-20T04:14:42;99957.78;;;27.05;45.17
6453;BME280;3259;51.080;13.712;2023-07-20T04:17:30;99961.69;;;27.09;45.28
6453;BME280;3259;51.080;13.712;2023-07-20T04:20:19;99964.34;;;27.09;45.32
6453;BME280;3259;51.080;13.712;2023-07-20T04:23:10;99962.91;;;27.13;45.37
6453;BME280;3259;51.080;13.712;2023-07-20T04:25:59;99961.44;;;27.11;45.29
6453;BME280;3259;51.080;13.712;2023-07-20T04:28:48;99962.69;;;27.08;45.39
6453;BME280;3259;51.080;13.712;2023-07-20T04:31:38;99968.06;;;27.08;45.18
6453;BME280;3259;51.080;13.712;2023-07-20T04:34:27;99970.94;;;27.13;45.19
6453;BME280;3259;51.080;13.712;2023-07-20T04:37:15;99967.66;;;27.11;45.25
6453;BME280;3259;51.080;13.712;2023-07-20T04:40:07;99971.34;;;27.10;45.43
6453;BME280;3259;51.080;13.712;2023-07-20T04:42:56;99964.03;;;26.99;45.67
6453;BME280;3259;51.080;13.712;2023-07-20T04:45:45;99964.41;;;27.03;45.53
6453;BME280;3259;51.080;13.712;2023-07-20T04:48:34;99964.47;;;26.96;45.45
6453;BME280;3259;51.080;13.712;2023-07-20T04:51:23;99967.06;;;27.03;45.40
6453;BME280;3259;51.080;13.712;2023-07-20T04:54:12;99963.16;;;27.05;45.68
6453;BME280;3259;51.080;13.712;2023-07-20T04:57:02;99965.59;;;27.07;45.50
6453;BME280;3259;51.080;13.712;2023-07-20T04:59:52;99969.72;;;27.09;45.57
6453;BME280;3259;51.080;13.712;2023-07-20T05:02:40;99968.84;;;27.15;45.66
6453;BME280;3259;51.080;13.712;2023-07-20T05:05:29;99975.25;;;27.14;45.20
6453;BME280;3259;51.080;13.712;2023-07-20T05:08:18;99978.31;;;27.18;45.52
6453;BME280;3259;51.080;13.712;2023-07-20T05:11:09;99978.69;;;27.21;45.57
6453;BME280;3259;51.080;13.712;2023-07-20T05:13:59;99982.16;;;27.22;45.68
6453;BME280;3259;51.080;13.712;2023-07-20T05:16:48;99979.88;;;27.25;45.67
6453;BME280;3259;51.080;13.712;2023-07-20T05:19:37;99979.88;;;27.25;45.59
6453;BME280;3259;51.080;13.712;2023-07-20T05:22:29;99983.16;;;27.27;45.70
6453;BME280;3259;51.080;13.712;2023-07-20T05:25:18;99977.47;;;27.17;45.90
6453;BME280;3259;51.080;13.712;2023-07-20T05:28:09;99977.34;;;27.12;45.90
6453;BME280;3259;51.080;13.712;2023-07-20T05:31:02;99977.56;;;27.04;46.03
6453;BME280;3259;51.080;13.712;2023-07-20T05:33:51;99979.28;;;26.99;45.94
6453;BME280;3259;51.080;13.712;2023-07-20T05:36:40;99973.53;;;26.95;46.00
6453;BME280;3259;51.080;13.712;2023-07-20T05:39:29;99977.03;;;26.96;46.05
6453;BME280;3259;51.080;13.712;2023-07-20T05:42:17;99981.25;;;26.85;46.32
6453;BME280;3259;51.080;13.712;2023-07-20T05:45:07;99981.41;;;26.90;46.01
6453;BME280;3259;51.080;13.712;2023-07-20T05:47:57;99976.50;;;26.87;46.17
6453;BME280;3259;51.080;13.712;2023-07-20T05:50:46;99981.63;;;26.89;46.11
6453;BME280;3259;51.080;13.712;2023-07-20T05:53:35;99982.31;;;26.78;46.60
6453;BME280;3259;51.080;13.712;2023-07-20T05:56:24;99986.69;;;26.72;46.44
6453;BME280;3259;51.080;13.712;2023-07-20T05:59:13;99992.22;;;26.77;46.13
6453;BME280;3259;51.080;13.712;2023-07-20T06:02:02;99988.56;;;26.72;46.31
6453;BME280;3259;51.080;13.712;2023-07-20T06:04:52;99998.28;;;26.66;46.74
6453;BME280;3259;51.080;13.712;2023-07-20T06:07:41;99990.75;;;26.57;46.82
6453;BME280;3259;51.080;13.712;2023-07-20T06:10:30;100002.69;;;26.54;47.05
6453;BME280;3259;51.080;13.712;2023-07-20T06:13:18;100005.31;;;26.61;47.00
6453;BME280;3259;51.080;13.712;2023-07-20T06:16:07;100010.72;;;26.54;46.96
6453;BME280;3259;51.080;13.712;2023-07-20T06:18:56;100004.34;;;26.49;46.65
6453;BME280;3259;51.080;13.712;2023-07-20T06:21:46;100007.59;;;26.57;46.29
6453;BME280;3259;51.080;13.712;2023-07-20T06:24:36;100012.50;;;26.60;46.35
6453;BME280;3259;51.080;13.712;2023-07-20T06:27:25;100005.56;;;26.53;46.32
6453;BME280;3259;51.080;13.712;2023-07-20T06:30:17;100007.66;;;26.44;46.18
6453;BME280;3259;51.080;13.712;2023-07-20T06:33:07;100015.53;;;26.39;46.00
6453;BME280;3259;51.080;13.712;2023-07-20T06:35:58;100015.16;;;26.29;46.08
6453;BME280;3259;51.080;13.712;2023-07-20T06:38:48;100012.47;;;26.29;46.57
6453;BME280;3259;51.080;13.712;2023-07-20T06:41:40;100019.66;;;26.29;46.47
6453;BME280;3259;51.080;13.712;2023-07-20T06:44:29;100022.53;;;26.34;46.92
6453;BME280;3259;51.080;13.712;2023-07-20T06:47:20;100024.53;;;26.45;46.66
6453;BME280;3259;51.080;13.712;2023-07-20T06:50:10;100027.84;;;26.40;46.85
6453;BME280;3259;51.080;13.712;2023-07-20T06:53:03;100033.59;;;26.44;46.66
6453;BME280;3259;51.080;13.712;2023-07-20T06:55:54;100035.28;;;26.38;46.69
6453;BME280;3259;51.080;13.712;2023-07-20T06:58:43;100043.47;;;26.43;46.46
6453;BME280;3259;51.080;13.712;2023-07-20T07:01:32;100040.63;;;26.38;46.66
6453;BME280;3259;51.080;13.712;2023-07-20T07:04:21;100030.78;;;26.32;47.02
6453;BME280;3259;51.080;13.712;2023-07-20T07:07:10;100034.28;;;26.33;47.14
6453;BME280;3259;51.080;13.712;2023-07-20T07:10:00;100032.66;;;26.25;47.21
6453;BME280;3259;51.080;13.712;2023-07-20T07:12:52;100033.84;;;26.36;47.18
6453;BME280;3259;51.080;13.712;2023-07-20T07:15:42;100036.13;;;26.32;47.67
6453;BME280;3259;51.080;13.712;2023-07-20T07:18:31;100035.28;;;26.38;47.13
6453;BME280;3259;51.080;13.712;2023-07-20T07:21:22;100042.63;;;26.49;46.91
6453;BME280;3259;51.080;13.712;2023-07-20T07:24:12;100033.50;;;26.63;46.50
6453;BME280;3259;51.080;13.712;2023-07-20T07:27:06;100044.13;;;26.76;45.99
6453;BME280;3259;51.080;13.712;2023-07-20T07:29:56;100040.16;;;26.85;45.89
6453;BME280;3259;51.080;13.712;2023-07-20T07:32:45;100044.16;;;26.94;45.51
6453;BME280;3259;51.080;13.712;2023-07-20T07:35:34;100044.72;;;27.03;45.40
6453;BME280;3259;51.080;13.712;2023-07-20T07:38:23;100048.00;;;27.11;45.23
6453;BME280;3259;51.080;13.712;2023-07-20T07:41:17;100044.22;;;27.19;44.98
6453;BME280;3259;51.080;13.712;2023-07-20T07:44:06;100046.25;;;27.23;44.88
6453;BME280;3259;51.080;13.712;2023-07-20T07:46:56;100040.22;;;27.28;44.67
6453;BME280;3259;51.080;13.712;2023-07-20T07:49:45;100039.53;;;27.32;44.56
6453;BME280;3259;51.080;13.712;2023-07-20T07:52:34;100043.81;;;27.40;44.73
6453;BME280;3259;51.080;13.712;2023-07-20T07:55:24;100050.16;;;27.45;44.65
6453;BME280;3259;51.080;13.712;2023-07-20T07:58:13;100060.81;;;27.52;44.45
6453;BME280;3259;51.080;13.712;2023-07-20T08:01:04;100048.38;;;27.57;44.08
6453;BME280;3259;51.080;13.712;2023-07-20T08:03:55;100040.69;;;27.61;43.80
6453;BME280;3259;51.080;13.712;2023-07-20T08:06:44;100035.97;;;27.63;43.71
6453;BME280;3259;51.080;13.712;2023-07-20T08:09:33;100031.53;;;27.68;43.88
6453;BME280;3259;51.080;13.712;2023-07-20T08:12:23;100031.34;;;27.70;43.57
6453;BME280;3259;51.080;13.712;2023-07-20T08:15:12;100034.59;;;27.72;43.69
6453;BME280;3259;51.080;13.712;2023-07-20T08:18:02;100050.06;;;27.76;43.54
6453;BME280;3259;51.080;13.712;2023-07-20T08:20:52;100033.75;;;27.78;43.36
6453;BME280;3259;51.080;13.712;2023-07-20T08:23:41;100036.66;;;27.76;43.37
6453;BME280;3259;51.080;13.712;2023-07-20T08:26:30;100049.59;;;27.79;43.28
6453;BME280;3259;51.080;13.712;2023-07-20T08:29:20;100044.03;;;27.81;43.39
6453;BME280;3259;51.080;13.712;2023-07-20T08:32:08;100039.50;;;27.81;42.98
6453;BME280;3259;51.080;13.712;2023-07-20T08:34:57;100043.56;;;27.84;43.40
6453;BME280;3259;51.080;13.712;2023-07-20T08:37:48;100043.34;;;27.85;43.03
6453;BME280;3259;51.080;13.712;2023-07-20T08:40:40;100039.63;;;27.86;43.08
6453;BME280;3259;51.080;13.712;2023-07-20T08:43:30;100037.31;;;27.90;43.11
6453;BME280;3259;51.080;13.712;2023-07-20T08:46:20;100034.66;;;27.90;42.76
6453;BME280;3259;51.080;13.712;2023-07-20T08:49:11;100035.25;;;27.92;42.53
6453;BME280;3259;51.080;13.712;2023-07-20T08:52:00;100047.59;;;27.93;42.28
6453;BME280;3259;51.080;13.712;2023-07-20T08:54:51;100040.53;;;27.98;42.37
6453;BME280;3259;51.080;13.712;2023-07-20T08:57:44;100049.59;;;27.97;42.43
6453;BME280;3259;51.080;13.712;2023-07-20T09:00:34;100046.25;;;28.02;42.03
6453;BME280;3259;51.080;13.712;2023-07-20T09:03:26;100044.97;;;28.04;42.21
6453;BME280;3259;51.080;13.712;2023-07-20T09:06:15;100052.81;;;28.06;42.04
6453;BME280;3259;51.080;13.712;2023-07-20T09:09:06;100046.38;;;28.07;42.03
6453;BME280;3259;51.080;13.712;2023-07-20T09:11:56;100049.91;;;28.07;41.72
6453;BME280;3259;51.080;13.712;2023-07-20T09:14:45;100044.53;;;28.07;41.80
6453;BME280;3259;51.080;13.712;2023-07-20T09:17:34;100045.34;;;28.08;41.97
6453;BME280;3259;51.080;13.712;2023-07-20T09:20:23;100042.44;;;28.09;41.66
6453;BME280;3259;51.080;13.712;2023-07-20T09:23:12;100031.72;;;28.09;41.53
6453;BME280;3259;51.080;13.712;2023-07-20T09:26:09;100042.00;;;28.12;41.47
6453;BME280;3259;51.080;13.712;2023-07-20T09:29:00;100040.34;;;28.11;41.39
6453;BME280;3259;51.080;13.712;2023-07-20T09:31:59;100042.81;;;28.13;41.18
6453;BME280;3259;51.080;13.712;2023-07-20T09:34:50;100040.50;;;28.16;41.07
6453;BME280;3259;51.080;13.712;2023-07-20T09:37:40;100044.84;;;28.17;40.69
6453;BME280;3259;51.080;13.712;2023-07-20T09:40:29;100049.56;;;28.15;40.90
6453;BME280;3259;51.080;13.712;2023-07-20T09:43:21;100056.59;;;28.16;40.85
6453;BME280;3259;51.080;13.712;2023-07-20T09:46:13;100059.28;;;28.16;41.03
6453;BME280;3259;51.080;13.712;2023-07-20T09:49:24;100054.28;;;28.20;41.37
6453;BME280;3259;51.080;13.712;2023-07-20T09:52:16;100059.63;;;28.20;41.00
6453;BME280;3259;51.080;13.712;2023-07-20T09:55:09;100055.56;;;28.17;41.13
6453;BME280;3259;51.080;13.712;2023-07-20T09:57:59;100050.78;;;28.19;41.41
6453;BME280;3259;51.080;13.712;2023-07-20T10:00:51;100066.88;;;28.19;41.55
6453;BME280;3259;51.080;13.712;2023-07-20T10:03:45;100072.06;;;28.14;41.46
6453;BME280;3259;51.080;13.712;2023-07-20T10:06:34;100083.63;;;28.15;41.99
6453;BME280;3259;51.080;13.712;2023-07-20T10:09:24;100073.72;;;28.15;42.09
6453;BME280;3259;51.080;13.712;2023-07-20T10:12:15;100067.16;;;28.11;42.35
6453;BME280;3259;51.080;13.712;2023-07-20T10:15:11;100070.22;;;28.15;42.40
6453;BME280;3259;51.080;13.712;2023-07-20T10:18:03;100064.66;;;28.16;42.43
6453;BME280;3259;51.080;13.712;2023-07-20T10:20:55;100075.97;;;28.18;42.64
6453;BME280;3259;51.080;13.712;2023-07-20T10:23:49;100071.28;;;28.14;42.65
6453;BME280;3259;51.080;13.712;2023-07-20T10:26:38;100069.31;;;28.21;42.80
6453;BME280;3259;51.080;13.712;2023-07-20T10:29:29;100066.41;;;28.22;43.01
6453;BME280;3259;51.080;13.712;2023-07-20T10:32:19;100069.09;;;28.22;42.84
6453;BME280;3259;51.080;13.712;2023-07-20T10:35:18;100073.41;;;28.23;43.01
6453;BME280;3259;51.080;13.712;2023-07-20T10:38:08;100070.38;;;28.20;42.82
6453;BME280;3259;51.080;13.712;2023-07-20T10:40:57;100065.97;;;28.25;42.84
6453;BME280;3259;51.080;13.712;2023-07-20T10:43:46;100062.69;;;28.23;42.96
6453;BME280;3259;51.080;13.712;2023-07-20T10:46:43;100052.13;;;28.28;42.81
6453;BME280;3259;51.080;13.712;2023-07-20T10:49:34;100062.84;;;28.28;42.58
6453;BME280;3259;51.080;13.712;2023-07-20T10:52:24;100062.78;;;28.35;42.58
6453;BME280;3259;51.080;13.712;2023-07-20T10:55:16;100059.72;;;28.31;42.71
6453;BME280;3259;51.080;13.712;2023-07-20T10:58:08;100056.59;;;28.34;42.83
6453;BME280;3259;51.080;13.712;2023-07-20T11:01:00;100063.59;;;28.35;42.91
6453;BME280;3259;51.080;13.712;2023-07-20T11:03:50;100064.78;;;28.39;42.72
6453;BME280;3259;51.080;13.712;2023-07-20T11:06:42;100062.78;;;28.35;42.80
6453;BME280;3259;51.080;13.712;2023-07-20T11:09:34;100046.69;;;28.35;42.89
6453;BME280;3259;51.080;13.712;2023-07-20T11:12:26;100050.03;;;28.30;43.32
6453;BME280;3259;51.080;13.712;2023-07-20T11:15:15;100052.84;;;28.35;42.61
6453;BME280;3259;51.080;13.712;2023-07-20T11:18:14;100052.84;;;28.35;43.00
6453;BME280;3259;51.080;13.712;2023-07-20T11:21:03;100048.66;;;28.39;43.00
6453;BME280;3259;51.080;13.712;2023-07-20T11:23:55;100045.31;;;28.43;43.08
6453;BME280;3259;51.080;13.712;2023-07-20T11:26:44;100048.38;;;28.47;43.24
6453;BME280;3259;51.080;13.712;2023-07-20T11:29:35;100039.13;;;28.43;43.07
6453;BME280;3259;51.080;13.712;2023-07-20T11:32:24;100041.94;;;28.48;43.47
6453;BME280;3259;51.080;13.712;2023-07-20T11:35:14;100043.16;;;28.52;43.58
6453;BME280;3259;51.080;13.712;2023-07-20T11:38:02;100043.25;;;28.57;43.56
6453;BME280;3259;51.080;13.712;2023-07-20T11:40:58;100040.59;;;28.57;43.39
6453;BME280;3259;51.080;13.712;2023-07-20T11:43:47;100041.75;;;28.61;43.76
6453;BME280;3259;51.080;13.712;2023-07-20T11:46:37;100037.81;;;28.63;43.57
6453;BME280;3259;51.080;13.712;2023-07-20T11:49:27;100038.84;;;28.62;42.99
6453;BME280;3259;51.080;13.712;2023-07-20T11:52:18;100040.69;;;28.62;43.53
6453;BME280;3259;51.080;13.712;2023-07-20T11:55:08;100041.44;;;28.69;42.94
6453;BME280;3259;51.080;13.712;2023-07-20T11:58:04;100037.69;;;28.70;42.85
6453;BME280;3259;51.080;13.712;2023-07-20T12:00:55;100045.75;;;28.70;42.70
6453;BME280;3259;51.080;13.712;2023-07-20T12:03:47;100041.44;;;28.69;42.53
6453;BME280;3259;51.080;13.712;2023-07-20T12:06:37;100044.84;;;28.76;42.18
6453;BME280;3259;51.080;13.712;2023-07-20T12:09:26;100050.13;;;28.82;42.22
6453;BME280;3259;51.080;13.712;2023-07-20T12:12:32;100048.03;;;28.84;42.04
6453;BME280;3259;51.080;13.712;2023-07-20T12:15:21;100056.75;;;28.80;42.48
6453;BME280;3259;51.080;13.712;2023-07-20T12:18:11;100057.19;;;28.65;43.38
6453;BME280;3259;51.080;13.712;2023-07-20T12:21:01;100048.06;;;28.55;43.72
6453;BME280;3259;51.080;13.712;2023-07-20T12:23:51;100058.50;;;28.45;44.14
6453;BME280;3259;51.080;13.712;2023-07-20T12:26:40;100064.34;;;28.42;44.39
6453;BME280;3259;51.080;13.712;2023-07-20T12:29:29;100067.31;;;28.34;44.98
6453;BME280;3259;51.080;13.712;2023-07-20T12:32:19;100068.97;;;28.17;45.29
6453;BME280;3259;51.080;13.712;2023-07-20T12:35:08;100075.38;;;27.98;45.67
6453;BME280;3259;51.080;13.712;2023-07-20T12:38:00;100075.66;;;27.90;45.16
6453;BME280;3259;51.080;13.712;2023-07-20T12:40:49;100086.03;;;27.87;45.61
6453;BME280;3259;51.080;13.712;2023-07-20T12:43:38;100077.44;;;27.78;45.77
6453;BME280;3259;51.080;13.712;2023-07-20T12:46:26;100087.00;;;27.74;45.77
6453;BME280;3259;51.080;13.712;2023-07-20T12:49:16;100082.47;;;27.68;45.89
6453;BME280;3259;51.080;13.712;2023-07-20T12:52:06;100093.69;;;27.59;45.37
6453;BME280;3259;51.080;13.712;2023-07-20T12:54:56;100091.69;;;27.54;45.10
6453;BME280;3259;51.080;13.712;2023-07-20T12:57:46;100096.31;;;27.47;45.25
6453;BME280;3259;51.080;13.712;2023-07-20T13:00:34;100096.13;;;27.42;45.35
6453;BME280;3259;51.080;13.712;2023-07-20T13:03:23;100094.78;;;27.33;45.95
6453;BME280;3259;51.080;13.712;2023-07-20T13:06:15;100086.13;;;27.31;46.22
6453;BME280;3259;51.080;13.712;2023-07-20T13:09:06;100087.47;;;27.22;46.36
6453;BME280;3259;51.080;13.712;2023-07-20T13:11:56;100075.09;;;27.21;46.10
6453;BME280;3259;51.080;13.712;2023-07-20T13:14:45;100068.84;;;27.27;46.06
6453;BME280;3259;51.080;13.712;2023-07-20T13:17:34;100064.28;;;27.34;45.51
6453;BME280;3259;51.080;13.712;2023-07-20T13:20:24;100077.38;;;27.42;44.87
6453;BME280;3259;51.080;13.712;2023-07-20T13:23:12;100065.34;;;27.51;44.85
6453;BME280;3259;51.080;13.712;2023-07-20T13:26:01;100067.16;;;27.57;44.42
6453;BME280;3259;51.080;13.712;2023-07-20T13:28:51;100064.81;;;27.61;44.43
6453;BME280;3259;51.080;13.712;2023-07-20T13:31:42;100055.66;;;27.68;43.83
6453;BME280;3259;51.080;13.712;2023-07-20T13:34:31;100053.59;;;27.70;43.85
6453;BME280;3259;51.080;13.712;2023-07-20T13:37:20;100054.88;;;27.68;43.92
6453;BME280;3259;51.080;13.712;2023-07-20T13:40:09;100056.47;;;27.75;43.47
6453;BME280;3259;51.080;13.712;2023-07-20T13:43:00;100050.66;;;27.78;43.70
6453;BME280;3259;51.080;13.712;2023-07-20T13:45:50;100058.25;;;27.81;43.42
6453;BME280;3259;51.080;13.712;2023-07-20T13:48:39;100055.94;;;27.85;42.97
6453;BME280;3259;51.080;13.712;2023-07-20T13:51:28;100055.41;;;27.76;43.45
6453;BME280;3259;51.080;13.712;2023-07-20T13:54:17;100057.34;;;27.69;43.56
6453;BME280;3259;51.080;13.712;2023-07-20T13:57:08;100060.28;;;27.61;43.81
6453;BME280;3259;51.080;13.712;2023-07-20T13:59:57;100059.59;;;27.48;43.53
6453;BME280;3259;51.080;13.712;2023-07-20T14:02:48;100066.22;;;27.45;43.74
6453;BME280;3259;51.080;13.712;2023-07-20T14:05:40;100065.59;;;27.43;43.79
6453;BME280;3259;51.080;13.712;2023-07-20T14:08:33;100074.53;;;27.37;43.67
6453;BME280;3259;51.080;13.712;2023-07-20T14:11:22;100068.00;;;27.33;43.86
6453;BME280;3259;51.080;13.712;2023-07-20T14:14:14;100067.06;;;27.21;44.05
6453;BME280;3259;51.080;13.712;2023-07-20T14:17:03;100068.47;;;27.24;43.73
6453;BME280;3259;51.080;13.712;2023-07-20T14:19:54;100062.13;;;27.18;43.99
6453;BME280;3259;51.080;13.712;2023-07-20T14:22:42;100064.06;;;27.11;44.18
6453;BME280;3259;51.080;13.712;2023-07-20T14:25:32;100071.84;;;27.13;44.06
6453;BME280;3259;51.080;13.712;2023-07-20T14:28:24;100076.41;;;27.12;44.20
6453;BME280;3259;51.080;13.712;2023-07-20T14:31:13;100078.47;;;27.10;44.12
6453;BME280;3259;51.080;13.712;2023-07-20T14:34:01;100072.47;;;27.08;44.57
6453;BME280;3259;51.080;13.712;2023-07-20T14:36:51;100085.56;;;26.98;44.62
6453;BME280;3259;51.080;13.712;2023-07-20T14:39:40;100092.16;;;26.96;44.72
6453;BME280;3259;51.080;13.712;2023-07-20T14:42:29;100093.41;;;26.93;45.14
6453;BME280;3259;51.080;13.712;2023-07-20T14:45:19;100089.53;;;26.89;45.39
6453;BME280;3259;51.080;13.712;2023-07-20T14:48:07;100084.31;;;26.94;45.50
6453;BME280;3259;51.080;13.712;2023-07-20T14:50:56;100082.25;;;26.96;45.40
6453;BME280;3259;51.080;13.712;2023-07-20T14:53:49;100076.91;;;26.96;45.83
6453;BME280;3259;51.080;13.712;2023-07-20T14:56:38;100070.69;;;27.02;45.30
6453;BME280;3259;51.080;13.712;2023-07-20T14:59:27;100073.56;;;27.01;45.30
6453;BME280;3259;51.080;13.712;2023-07-20T15:02:16;100068.66;;;26.98;44.65
6453;BME280;3259;51.080;13.712;2023-07-20T15:05:07;100061.88;;;26.95;44.75
6453;BME280;3259;51.080;13.712;2023-07-20T15:07:56;100055.13;;;26.93;44.75